sensor_id;sensor_type;location;lat;lon;timestamp;P1;durP1;ratioP1;P2;durP2;ratioP2
50531;SDS011;36483;37.396;-122.212;2022-07-03T00:01:55;2.67;;;1.10;;
50531;SDS011;36483;37.396;-122.212;2022-07-03T00:04:21;2.35;;;1.33;;
50531;SDS011;36483;37.396;-122.212;2022-07-03T00:06:47;3.08;;;1.10;;
50531;SDS011;36483;37.396;-122.212;2022-07-03T00:09:13;2.88;;;1.52;;
50531;SDS011;36483;37.396;-122.212;2022-07-03T00:11:40;1.60;;;1.02;;
50531;SDS011;36483;37.396;-122.212;2022-07-03T00:14:06;2.30;;;1.27;;
50531;SDS011;36483;37.396;-122.212;2022-07-03T00:16:32;1.90;;;1.00;;
50531;SDS011;36483;37.396;-122.212;2022-07-03T00:18:58;2.60;;;1.15;;
50531;SDS011;36483;37.396;-122.212;2022-07-03T00:21:28;2.63;;;1.20;;
50531;SDS011;36483;37.396;-122.212;2022-07-03T00:24:43;2.17;;;1.15;;
50531;SDS011;36483;37.396;-122.212;2022-07-03T00:26:53;3.30;;;1.30;;
50531;SDS011;36483;37.396;-122.212;2022-07-03T00:29:22;2.33;;;1.10;;
50531;SDS011;36483;37.396;-122.212;2022-07-03T00:31:49;4.22;;;1.42;;
50531;SDS011;36483;37.396;-122.212;2022-07-03T00:34:16;2.60;;;1.50;;
50531;SDS011;36483;37.396;-122.212;2022-07-03T00:36:43;4.78;;;1.55;;
50531;SDS011;36483;37.396;-122.212;2022-07-03T00:39:11;3.60;;;1.70;;
50531;SDS011;36483;37.396;-122.212;2022-07-03T00:41:37;2.63;;;1.40;;
50531;SDS011;36483;37.396;-122.212;2022-07-03T00:44:04;2.13;;;1.30;;
50531;SDS011;36483;37.396;-122.212;2022-07-03T00:46:30;3.00;;;1.50;;
50531;SDS011;36483;37.396;-122.212;2022-07-03T00:48:57;4.25;;;2.15;;
50531;SDS011;36483;37.396;-122.212;2022-07-03T00:51:27;2.42;;;1.77;;
50531;SDS011;36483;37.396;-122.212;2022-07-03T00:53:57;2.92;;;1.55;;
50531;SDS011;36483;37.396;-122.212;2022-07-03T00:56:28;3.67;;;2.03;;
50531;SDS011;36483;37.396;-122.212;2022-07-03T00:58:57;7.70;;;3.03;;
50531;SDS011;36483;37.396;-122.212;2022-07-03T01:01:25;2.78;;;1.30;;
50531;SDS011;36483;37.396;-122.212;2022-07-03T01:04:03;2.10;;;1.30;;
50531;SDS011;36483;37.396;-122.212;2022-07-03T01:06:40;2.30;;;1.20;;
50531;SDS011;36483;37.396;-122.212;2022-07-03T01:09:17;3.75;;;1.40;;
50531;SDS011;36483;37.396;-122.212;2022-07-03T01:11:54;3.90;;;1.75;;
50531;SDS011;36483;37.396;-122.212;2022-07-03T01:17:06;2.80;;;1.40;;
50531;SDS011;36483;37.396;-122.212;2022-07-03T01:19:43;3.03;;;1.60;;
50531;SDS011;36483;37.396;-122.212;2022-07-03T01:30:33;4.40;;;1.70;;
50531;SDS011;36483;37.396;-122.212;2022-07-03T01:33:15;2.67;;;1.30;;
50531;SDS011;36483;37.396;-122.212;2022-07-03T01:38:30;2.83;;;1.27;;
50531;SDS011;36483;37.396;-122.212;2022-07-03T01:40:59;3.20;;;1.30;;
50531;SDS011;36483;37.396;-122.212;2022-07-03T01:43:29;3.38;;;1.42;;
50531;SDS011;36483;37.396;-122.212;2022-07-03T01:45:57;3.10;;;1.33;;
50531;SDS011;36483;37.396;-122.212;2022-07-03T01:48:24;2.33;;;1.30;;
50531;SDS011;36483;37.396;-122.212;2022-07-03T01:50:51;3.38;;;1.50;;
50531;SDS011;36483;37.396;-122.212;2022-07-03T01:53:18;2.80;;;1.25;;
50531;SDS011;36483;37.396;-122.212;2022-07-03T01:55:44;4.97;;;1.75;;
50531;SDS011;36483;37.396;-122.212;2022-07-03T01:58:12;3.65;;;1.45;;
50531;SDS011;36483;37.396;-122.212;2022-07-03T02:01:24;2.63;;;1.50;;
50531;SDS011;36483;37.396;-122.212;2022-07-03T02:03:34;3.33;;;1.60;;
50531;SDS011;36483;37.396;-122.212;2022-07-03T02:06:09;3.95;;;1.80;;
50531;SDS011;36483;37.396;-122.212;2022-07-03T02:11:17;6.30;;;2.22;;
50531;SDS011;36483;37.396;-122.212;2022-07-03T02:13:50;4.82;;;2.00;;
50531;SDS011;36483;37.396;-122.212;2022-07-03T02:16:28;4.47;;;2.20;;
50531;SDS011;36483;37.396;-122.212;2022-07-03T02:18:56;4.15;;;2.20;;
50531;SDS011;36483;37.396;-122.212;2022-07-03T02:21:31;4.90;;;2.58;;
50531;SDS011;36483;37.396;-122.212;2022-07-03T02:24:15;5.32;;;2.20;;
50531;SDS011;36483;37.396;-122.212;2022-07-03T02:26:42;5.03;;;2.47;;
50531;SDS011;36483;37.396;-122.212;2022-07-03T02:29:16;6.90;;;2.28;;
50531;SDS011;36483;37.396;-122.212;2022-07-03T02:31:44;5.95;;;2.42;;
50531;SDS011;36483;37.396;-122.212;2022-07-03T02:34:15;5.72;;;2.60;;
50531;SDS011;36483;37.396;-122.212;2022-07-03T02:36:44;5.95;;;2.40;;
50531;SDS011;36483;37.396;-122.212;2022-07-03T02:39:14;5.50;;;2.33;;
50531;SDS011;36483;37.396;-122.212;2022-07-03T02:41:46;4.78;;;1.95;;
50531;SDS011;36483;37.396;-122.212;2022-07-03T02:44:21;5.30;;;2.30;;
50531;SDS011;36483;37.396;-122.212;2022-07-03T02:46:59;4.32;;;1.98;;
50531;SDS011;36483;37.396;-122.212;2022-07-03T03:00:52;5.60;;;2.47;;
50531;SDS011;36483;37.396;-122.212;2022-07-03T03:03:26;4.53;;;2.50;;
50531;SDS011;36483;37.396;-122.212;2022-07-03T03:05:53;6.03;;;2.55;;
50531;SDS011;36483;37.396;-122.212;2022-07-03T03:11:02;5.50;;;2.42;;
50531;SDS011;36483;37.396;-122.212;2022-07-03T03:13:32;6.53;;;2.65;;
50531;SDS011;36483;37.396;-122.212;2022-07-03T03:16:06;5.97;;;2.83;;
50531;SDS011;36483;37.396;-122.212;2022-07-03T03:18:33;4.80;;;2.42;;
50531;SDS011;36483;37.396;-122.212;2022-07-03T03:21:02;5.40;;;2.33;;
50531;SDS011;36483;37.396;-122.212;2022-07-03T03:23:33;4.88;;;2.83;;
50531;SDS011;36483;37.396;-122.212;2022-07-03T03:26:03;5.70;;;2.72;;
50531;SDS011;36483;37.396;-122.212;2022-07-03T03:28:30;5.40;;;2.65;;
50531;SDS011;36483;37.396;-122.212;2022-07-03T03:30:56;4.78;;;2.63;;
50531;SDS011;36483;37.396;-122.212;2022-07-03T03:33:22;5.85;;;2.78;;
50531;SDS011;36483;37.396;-122.212;2022-07-03T03:35:48;6.75;;;2.50;;
50531;SDS011;36483;37.396;-122.212;2022-07-03T03:38:14;5.55;;;2.55;;
50531;SDS011;36483;37.396;-122.212;2022-07-03T03:40:41;6.28;;;3.17;;
50531;SDS011;36483;37.396;-122.212;2022-07-03T03:43:10;7.07;;;3.22;;
50531;SDS011;36483;37.396;-122.212;2022-07-03T03:45:36;6.20;;;2.72;;
50531;SDS011;36483;37.396;-122.212;2022-07-03T03:48:02;5.72;;;2.95;;
50531;SDS011;36483;37.396;-122.212;2022-07-03T03:50:28;6.82;;;2.80;;
50531;SDS011;36483;37.396;-122.212;2022-07-03T03:52:54;6.57;;;2.88;;
50531;SDS011;36483;37.396;-122.212;2022-07-03T03:55:21;6.95;;;2.83;;
50531;SDS011;36483;37.396;-122.212;2022-07-03T03:57:47;7.53;;;2.88;;
50531;SDS011;36483;37.396;-122.212;2022-07-03T04:00:13;4.50;;;2.88;;
50531;SDS011;36483;37.396;-122.212;2022-07-03T04:02:39;4.97;;;2.55;;
50531;SDS011;36483;37.396;-122.212;2022-07-03T04:05:06;6.75;;;2.90;;
50531;SDS011;36483;37.396;-122.212;2022-07-03T04:07:32;6.03;;;2.90;;
50531;SDS011;36483;37.396;-122.212;2022-07-03T04:09:58;8.25;;;3.17;;
50531;SDS011;36483;37.396;-122.212;2022-07-03T04:12:24;5.72;;;3.15;;
50531;SDS011;36483;37.396;-122.212;2022-07-03T04:14:50;5.72;;;2.83;;
50531;SDS011;36483;37.396;-122.212;2022-07-03T04:17:16;5.35;;;3.15;;
50531;SDS011;36483;37.396;-122.212;2022-07-03T04:19:43;5.32;;;2.60;;
50531;SDS011;36483;37.396;-122.212;2022-07-03T04:22:09;4.53;;;2.60;;
50531;SDS011;36483;37.396;-122.212;2022-07-03T04:24:35;5.70;;;2.90;;
50531;SDS011;36483;37.396;-122.212;2022-07-03T04:27:02;7.43;;;2.80;;
50531;SDS011;36483;37.396;-122.212;2022-07-03T04:29:29;4.63;;;2.50;;
50531;SDS011;36483;37.396;-122.212;2022-07-03T04:31:55;4.47;;;2.53;;
50531;SDS011;36483;37.396;-122.212;2022-07-03T04:34:21;6.97;;;2.90;;
50531;SDS011;36483;37.396;-122.212;2022-07-03T04:36:47;4.80;;;2.38;;
50531;SDS011;36483;37.396;-122.212;2022-07-03T04:39:14;4.03;;;2.47;;
50531;SDS011;36483;37.396;-122.212;2022-07-03T04:41:40;5.88;;;2.55;;
50531;SDS011;36483;37.396;-122.212;2022-07-03T04:44:06;5.57;;;3.10;;
50531;SDS011;36483;37.396;-122.212;2022-07-03T04:46:32;5.25;;;3.08;;
50531;SDS011;36483;37.396;-122.212;2022-07-03T04:48:58;5.93;;;2.75;;
50531;SDS011;36483;37.396;-122.212;2022-07-03T04:51:25;7.22;;;3.00;;
50531;SDS011;36483;37.396;-122.212;2022-07-03T04:53:51;4.45;;;2.65;;
50531;SDS011;36483;37.396;-122.212;2022-07-03T04:56:17;8.55;;;3.25;;
50531;SDS011;36483;37.396;-122.212;2022-07-03T04:58:43;5.60;;;3.17;;
50531;SDS011;36483;37.396;-122.212;2022-07-03T05:01:10;7.32;;;3.00;;
50531;SDS011;36483;37.396;-122.212;2022-07-03T05:03:36;10.02;;;3.33;;
50531;SDS011;36483;37.396;-122.212;2022-07-03T05:06:02;5.25;;;3.20;;
50531;SDS011;36483;37.396;-122.212;2022-07-03T05:08:29;7.53;;;2.90;;
50531;SDS011;36483;37.396;-122.212;2022-07-03T05:10:55;6.43;;;3.03;;
50531;SDS011;36483;37.396;-122.212;2022-07-03T05:13:21;5.53;;;3.03;;
50531;SDS011;36483;37.396;-122.212;2022-07-03T05:15:47;7.47;;;3.35;;
50531;SDS011;36483;37.396;-122.212;2022-07-03T05:18:13;7.00;;;2.78;;
50531;SDS011;36483;37.396;-122.212;2022-07-03T05:20:39;7.78;;;2.80;;
50531;SDS011;36483;37.396;-122.212;2022-07-03T05:23:05;6.57;;;2.78;;
50531;SDS011;36483;37.396;-122.212;2022-07-03T05:25:32;5.50;;;3.00;;
50531;SDS011;36483;37.396;-122.212;2022-07-03T05:27:58;7.88;;;3.20;;
50531;SDS011;36483;37.396;-122.212;2022-07-03T05:30:25;8.65;;;3.10;;
50531;SDS011;36483;37.396;-122.212;2022-07-03T05:32:52;7.07;;;2.92;;
50531;SDS011;36483;37.396;-122.212;2022-07-03T05:35:19;8.20;;;2.83;;
50531;SDS011;36483;37.396;-122.212;2022-07-03T05:37:45;4.82;;;2.85;;
50531;SDS011;36483;37.396;-122.212;2022-07-03T05:40:11;6.05;;;2.78;;
50531;SDS011;36483;37.396;-122.212;2022-07-03T05:42:37;5.30;;;2.97;;
50531;SDS011;36483;37.396;-122.212;2022-07-03T05:45:03;5.60;;;2.75;;
50531;SDS011;36483;37.396;-122.212;2022-07-03T05:47:30;7.55;;;2.80;;
50531;SDS011;36483;37.396;-122.212;2022-07-03T05:49:56;5.97;;;3.03;;
50531;SDS011;36483;37.396;-122.212;2022-07-03T05:52:22;9.35;;;3.13;;
50531;SDS011;36483;37.396;-122.212;2022-07-03T05:54:48;7.28;;;3.00;;
50531;SDS011;36483;37.396;-122.212;2022-07-03T05:57:14;6.05;;;2.90;;
50531;SDS011;36483;37.396;-122.212;2022-07-03T05:59:40;7.00;;;2.90;;
50531;SDS011;36483;37.396;-122.212;2022-07-03T06:02:07;5.45;;;2.88;;
50531;SDS011;36483;37.396;-122.212;2022-07-03T06:04:33;7.18;;;2.80;;
50531;SDS011;36483;37.396;-122.212;2022-07-03T06:06:59;9.07;;;3.10;;
50531;SDS011;36483;37.396;-122.212;2022-07-03T06:09:25;8.07;;;2.92;;
50531;SDS011;36483;37.396;-122.212;2022-07-03T06:11:51;6.57;;;2.83;;
50531;SDS011;36483;37.396;-122.212;2022-07-03T06:14:17;5.22;;;2.95;;
50531;SDS011;36483;37.396;-122.212;2022-07-03T06:16:43;9.07;;;3.13;;
50531;SDS011;36483;37.396;-122.212;2022-07-03T06:19:10;6.38;;;2.83;;
50531;SDS011;36483;37.396;-122.212;2022-07-03T06:21:36;6.40;;;2.80;;
50531;SDS011;36483;37.396;-122.212;2022-07-03T06:24:02;7.25;;;3.25;;
50531;SDS011;36483;37.396;-122.212;2022-07-03T06:26:28;5.30;;;2.80;;
50531;SDS011;36483;37.396;-122.212;2022-07-03T06:28:54;6.18;;;2.70;;
50531;SDS011;36483;37.396;-122.212;2022-07-03T06:31:20;4.90;;;3.08;;
50531;SDS011;36483;37.396;-122.212;2022-07-03T06:33:47;5.25;;;2.97;;
50531;SDS011;36483;37.396;-122.212;2022-07-03T06:36:13;6.18;;;3.00;;
50531;SDS011;36483;37.396;-122.212;2022-07-03T06:38:39;5.13;;;2.63;;
50531;SDS011;36483;37.396;-122.212;2022-07-03T06:41:05;5.18;;;2.70;;
50531;SDS011;36483;37.396;-122.212;2022-07-03T06:43:31;5.65;;;2.85;;
50531;SDS011;36483;37.396;-122.212;2022-07-03T06:45:57;4.68;;;2.42;;
50531;SDS011;36483;37.396;-122.212;2022-07-03T06:48:23;5.20;;;2.78;;
50531;SDS011;36483;37.396;-122.212;2022-07-03T06:50:49;7.20;;;2.88;;
50531;SDS011;36483;37.396;-122.212;2022-07-03T06:53:15;5.65;;;2.60;;
50531;SDS011;36483;37.396;-122.212;2022-07-03T06:55:41;6.70;;;2.60;;
50531;SDS011;36483;37.396;-122.212;2022-07-03T06:58:08;4.95;;;2.40;;
50531;SDS011;36483;37.396;-122.212;2022-07-03T07:00:34;6.38;;;2.63;;
50531;SDS011;36483;37.396;-122.212;2022-07-03T07:03:01;5.60;;;2.28;;
50531;SDS011;36483;37.396;-122.212;2022-07-03T07:05:28;6.22;;;2.50;;
50531;SDS011;36483;37.396;-122.212;2022-07-03T07:07:54;4.03;;;2.30;;
50531;SDS011;36483;37.396;-122.212;2022-07-03T07:10:20;5.05;;;2.05;;
50531;SDS011;36483;37.396;-122.212;2022-07-03T07:12:46;5.75;;;2.55;;
50531;SDS011;36483;37.396;-122.212;2022-07-03T07:15:12;5.03;;;2.25;;
50531;SDS011;36483;37.396;-122.212;2022-07-03T07:17:38;6.38;;;2.20;;
50531;SDS011;36483;37.396;-122.212;2022-07-03T07:20:05;5.03;;;2.08;;
50531;SDS011;36483;37.396;-122.212;2022-07-03T07:22:31;4.50;;;2.08;;
50531;SDS011;36483;37.396;-122.212;2022-07-03T07:24:57;4.45;;;2.00;;
50531;SDS011;36483;37.396;-122.212;2022-07-03T07:27:23;4.65;;;2.00;;
50531;SDS011;36483;37.396;-122.212;2022-07-03T07:29:50;5.00;;;2.00;;
50531;SDS011;36483;37.396;-122.212;2022-07-03T07:32:16;3.75;;;2.10;;
50531;SDS011;36483;37.396;-122.212;2022-07-03T07:34:42;4.50;;;1.95;;
50531;SDS011;36483;37.396;-122.212;2022-07-03T07:37:08;4.47;;;2.17;;
50531;SDS011;36483;37.396;-122.212;2022-07-03T07:39:34;3.45;;;2.10;;
50531;SDS011;36483;37.396;-122.212;2022-07-03T07:42:00;3.50;;;2.03;;
50531;SDS011;36483;37.396;-122.212;2022-07-03T07:44:26;3.33;;;2.20;;
50531;SDS011;36483;37.396;-122.212;2022-07-03T07:46:52;3.83;;;2.03;;
50531;SDS011;36483;37.396;-122.212;2022-07-03T07:49:19;5.47;;;1.90;;
50531;SDS011;36483;37.396;-122.212;2022-07-03T07:51:45;4.10;;;2.00;;
50531;SDS011;36483;37.396;-122.212;2022-07-03T07:54:11;4.22;;;1.80;;
50531;SDS011;36483;37.396;-122.212;2022-07-03T07:56:37;2.90;;;1.75;;
50531;SDS011;36483;37.396;-122.212;2022-07-03T07:59:03;5.15;;;1.80;;
50531;SDS011;36483;37.396;-122.212;2022-07-03T08:01:29;3.83;;;1.88;;
50531;SDS011;36483;37.396;-122.212;2022-07-03T08:04:13;4.60;;;2.10;;
50531;SDS011;36483;37.396;-122.212;2022-07-03T08:06:58;3.58;;;1.85;;
50531;SDS011;36483;37.396;-122.212;2022-07-03T08:09:24;2.85;;;1.70;;
50531;SDS011;36483;37.396;-122.212;2022-07-03T08:11:50;4.38;;;1.70;;
50531;SDS011;36483;37.396;-122.212;2022-07-03T08:14:16;3.35;;;1.98;;
50531;SDS011;36483;37.396;-122.212;2022-07-03T08:16:42;4.70;;;2.05;;
50531;SDS011;36483;37.396;-122.212;2022-07-03T08:19:10;3.97;;;2.00;;
50531;SDS011;36483;37.396;-122.212;2022-07-03T08:21:36;2.75;;;1.65;;
50531;SDS011;36483;37.396;-122.212;2022-07-03T08:24:02;4.78;;;1.80;;
50531;SDS011;36483;37.396;-122.212;2022-07-03T08:26:28;4.07;;;1.85;;
50531;SDS011;36483;37.396;-122.212;2022-07-03T08:28:55;2.83;;;1.98;;
50531;SDS011;36483;37.396;-122.212;2022-07-03T08:31:21;3.70;;;1.92;;
50531;SDS011;36483;37.396;-122.212;2022-07-03T08:33:47;2.10;;;1.48;;
50531;SDS011;36483;37.396;-122.212;2022-07-03T08:36:13;2.83;;;1.60;;
50531;SDS011;36483;37.396;-122.212;2022-07-03T08:38:39;3.60;;;1.98;;
50531;SDS011;36483;37.396;-122.212;2022-07-03T08:41:05;3.08;;;1.58;;
50531;SDS011;36483;37.396;-122.212;2022-07-03T08:43:32;4.97;;;1.60;;
50531;SDS011;36483;37.396;-122.212;2022-07-03T08:45:59;5.40;;;1.70;;
50531;SDS011;36483;37.396;-122.212;2022-07-03T08:48:26;3.00;;;1.80;;
50531;SDS011;36483;37.396;-122.212;2022-07-03T08:50:53;3.22;;;1.63;;
50531;SDS011;36483;37.396;-122.212;2022-07-03T08:53:20;2.65;;;1.48;;
50531;SDS011;36483;37.396;-122.212;2022-07-03T08:55:47;3.40;;;1.90;;
50531;SDS011;36483;37.396;-122.212;2022-07-03T08:58:14;2.13;;;1.40;;
50531;SDS011;36483;37.396;-122.212;2022-07-03T09:00:41;2.60;;;1.40;;
50531;SDS011;36483;37.396;-122.212;2022-07-03T09:03:11;2.47;;;1.45;;
50531;SDS011;36483;37.396;-122.212;2022-07-03T09:05:38;2.22;;;1.50;;
50531;SDS011;36483;37.396;-122.212;2022-07-03T09:08:07;2.40;;;1.30;;
50531;SDS011;36483;37.396;-122.212;2022-07-03T09:10:34;2.72;;;1.60;;
50531;SDS011;36483;37.396;-122.212;2022-07-03T09:13:00;2.10;;;1.20;;
50531;SDS011;36483;37.396;-122.212;2022-07-03T09:15:27;3.33;;;1.20;;
50531;SDS011;36483;37.396;-122.212;2022-07-03T09:17:57;2.42;;;1.15;;
50531;SDS011;36483;37.396;-122.212;2022-07-03T09:20:29;2.35;;;1.08;;
50531;SDS011;36483;37.396;-122.212;2022-07-03T09:25:34;2.13;;;1.00;;
50531;SDS011;36483;37.396;-122.212;2022-07-03T09:28:01;4.97;;;1.08;;
50531;SDS011;36483;37.396;-122.212;2022-07-03T09:30:27;2.05;;;0.82;;
50531;SDS011;36483;37.396;-122.212;2022-07-03T09:32:53;3.40;;;1.02;;
50531;SDS011;36483;37.396;-122.212;2022-07-03T09:35:23;1.55;;;0.90;;
50531;SDS011;36483;37.396;-122.212;2022-07-03T09:38:01;1.25;;;0.80;;
50531;SDS011;36483;37.396;-122.212;2022-07-03T09:43:21;2.40;;;1.08;;
50531;SDS011;36483;37.396;-122.212;2022-07-03T09:48:27;1.27;;;0.90;;
50531;SDS011;36483;37.396;-122.212;2022-07-03T09:54:03;1.88;;;1.00;;
50531;SDS011;36483;37.396;-122.212;2022-07-03T09:56:33;2.10;;;0.77;;
50531;SDS011;36483;37.396;-122.212;2022-07-03T09:59:00;1.98;;;1.08;;
50531;SDS011;36483;37.396;-122.212;2022-07-03T10:01:35;1.83;;;1.00;;
50531;SDS011;36483;37.396;-122.212;2022-07-03T10:04:34;1.50;;;1.00;;
50531;SDS011;36483;37.396;-122.212;2022-07-03T10:06:59;1.30;;;0.80;;
50531;SDS011;36483;37.396;-122.212;2022-07-03T10:09:33;2.15;;;1.10;;
50531;SDS011;36483;37.396;-122.212;2022-07-03T10:12:00;1.95;;;1.00;;
50531;SDS011;36483;37.396;-122.212;2022-07-03T10:14:28;1.65;;;0.75;;
50531;SDS011;36483;37.396;-122.212;2022-07-03T10:16:56;2.10;;;0.90;;
50531;SDS011;36483;37.396;-122.212;2022-07-03T10:19:27;2.25;;;0.93;;
50531;SDS011;36483;37.396;-122.212;2022-07-03T10:21:57;1.90;;;1.00;;
50531;SDS011;36483;37.396;-122.212;2022-07-03T10:24:28;3.63;;;0.90;;
50531;SDS011;36483;37.396;-122.212;2022-07-03T10:26:55;2.00;;;1.00;;
50531;SDS011;36483;37.396;-122.212;2022-07-03T10:29:23;1.45;;;0.90;;
50531;SDS011;36483;37.396;-122.212;2022-07-03T10:31:51;3.05;;;0.90;;
50531;SDS011;36483;37.396;-122.212;2022-07-03T10:34:18;2.15;;;1.00;;
50531;SDS011;36483;37.396;-122.212;2022-07-03T10:36:46;1.05;;;0.73;;
50531;SDS011;36483;37.396;-122.212;2022-07-03T10:39:15;2.03;;;1.02;;
50531;SDS011;36483;37.396;-122.212;2022-07-03T10:42:04;1.67;;;0.80;;
50531;SDS011;36483;37.396;-122.212;2022-07-03T10:44:50;1.55;;;0.75;;
50531;SDS011;36483;37.396;-122.212;2022-07-03T10:47:36;1.02;;;0.50;;
50531;SDS011;36483;37.396;-122.212;2022-07-03T10:50:11;1.00;;;0.60;;
50531;SDS011;36483;37.396;-122.212;2022-07-03T10:52:39;0.98;;;0.63;;
50531;SDS011;36483;37.396;-122.212;2022-07-03T10:55:06;1.50;;;0.60;;
50531;SDS011;36483;37.396;-122.212;2022-07-03T10:57:36;0.70;;;0.43;;
50531;SDS011;36483;37.396;-122.212;2022-07-03T11:00:04;1.50;;;0.40;;
50531;SDS011;36483;37.396;-122.212;2022-07-03T11:02:41;4.15;;;0.50;;
50531;SDS011;36483;37.396;-122.212;2022-07-03T11:05:12;0.50;;;0.40;;
50531;SDS011;36483;37.396;-122.212;2022-07-03T11:18:35;0.68;;;0.47;;
50531;SDS011;36483;37.396;-122.212;2022-07-03T11:26:28;1.02;;;0.55;;
50531;SDS011;36483;37.396;-122.212;2022-07-03T11:28:54;0.88;;;0.40;;
50531;SDS011;36483;37.396;-122.212;2022-07-03T11:31:21;0.70;;;0.40;;
50531;SDS011;36483;37.396;-122.212;2022-07-03T11:38:45;0.32;;;0.32;;
50531;SDS011;36483;37.396;-122.212;2022-07-03T11:41:13;0.40;;;0.40;;
50531;SDS011;36483;37.396;-122.212;2022-07-03T11:43:47;0.80;;;0.30;;
50531;SDS011;36483;37.396;-122.212;2022-07-03T11:46:17;0.30;;;0.30;;
50531;SDS011;36483;37.396;-122.212;2022-07-03T11:48:45;0.95;;;0.40;;
50531;SDS011;36483;37.396;-122.212;2022-07-03T11:51:11;0.45;;;0.25;;
50531;SDS011;36483;37.396;-122.212;2022-07-03T11:53:37;1.25;;;0.40;;
50531;SDS011;36483;37.396;-122.212;2022-07-03T11:56:05;0.57;;;0.40;;
50531;SDS011;36483;37.396;-122.212;2022-07-03T12:01:26;0.75;;;0.30;;
50531;SDS011;36483;37.396;-122.212;2022-07-03T12:04:16;0.40;;;0.40;;
50531;SDS011;36483;37.396;-122.212;2022-07-03T12:06:48;0.77;;;0.40;;
50531;SDS011;36483;37.396;-122.212;2022-07-03T12:11:58;0.85;;;0.55;;
50531;SDS011;36483;37.396;-122.212;2022-07-03T12:14:37;0.85;;;0.50;;
50531;SDS011;36483;37.396;-122.212;2022-07-03T12:17:20;0.60;;;0.43;;
50531;SDS011;36483;37.396;-122.212;2022-07-03T12:19:48;1.67;;;0.70;;
50531;SDS011;36483;37.396;-122.212;2022-07-03T12:22:25;0.98;;;0.55;;
50531;SDS011;36483;37.396;-122.212;2022-07-03T12:27:30;0.60;;;0.50;;
50531;SDS011;36483;37.396;-122.212;2022-07-03T12:29:58;1.95;;;0.70;;
50531;SDS011;36483;37.396;-122.212;2022-07-03T12:32:25;1.30;;;0.68;;
50531;SDS011;36483;37.396;-122.212;2022-07-03T12:34:51;0.85;;;0.47;;
50531;SDS011;36483;37.396;-122.212;2022-07-03T12:37:30;1.55;;;0.60;;
50531;SDS011;36483;37.396;-122.212;2022-07-03T12:40:00;1.20;;;0.70;;
50531;SDS011;36483;37.396;-122.212;2022-07-03T12:42:27;1.17;;;0.77;;
50531;SDS011;36483;37.396;-122.212;2022-07-03T12:45:00;1.73;;;0.80;;
50531;SDS011;36483;37.396;-122.212;2022-07-03T12:47:30;1.40;;;0.80;;
50531;SDS011;36483;37.396;-122.212;2022-07-03T12:52:24;1.48;;;0.80;;
50531;SDS011;36483;37.396;-122.212;2022-07-03T12:54:50;1.42;;;0.60;;
50531;SDS011;36483;37.396;-122.212;2022-07-03T12:57:16;1.20;;;0.80;;
50531;SDS011;36483;37.396;-122.212;2022-07-03T13:00:21;1.00;;;0.80;;
50531;SDS011;36483;37.396;-122.212;2022-07-03T13:02:47;2.28;;;0.70;;
50531;SDS011;36483;37.396;-122.212;2022-07-03T13:05:15;1.42;;;0.80;;
50531;SDS011;36483;37.396;-122.212;2022-07-03T13:07:43;2.40;;;1.00;;
50531;SDS011;36483;37.396;-122.212;2022-07-03T13:10:10;1.55;;;0.90;;
50531;SDS011;36483;37.396;-122.212;2022-07-03T13:12:50;2.22;;;0.80;;
50531;SDS011;36483;37.396;-122.212;2022-07-03T13:15:17;1.48;;;0.70;;
50531;SDS011;36483;37.396;-122.212;2022-07-03T13:17:51;1.95;;;0.90;;
50531;SDS011;36483;37.396;-122.212;2022-07-03T13:20:20;1.20;;;0.70;;
50531;SDS011;36483;37.396;-122.212;2022-07-03T13:22:47;1.45;;;0.80;;
50531;SDS011;36483;37.396;-122.212;2022-07-03T13:25:14;1.60;;;0.80;;
50531;SDS011;36483;37.396;-122.212;2022-07-03T13:27:40;1.83;;;0.80;;
50531;SDS011;36483;37.396;-122.212;2022-07-03T13:30:08;3.35;;;1.30;;
50531;SDS011;36483;37.396;-122.212;2022-07-03T13:32:34;1.00;;;0.70;;
50531;SDS011;36483;37.396;-122.212;2022-07-03T13:35:00;1.58;;;1.02;;
50531;SDS011;36483;37.396;-122.212;2022-07-03T13:37:27;1.60;;;0.82;;
50531;SDS011;36483;37.396;-122.212;2022-07-03T13:39:53;3.10;;;0.90;;
50531;SDS011;36483;37.396;-122.212;2022-07-03T13:42:19;1.23;;;0.80;;
50531;SDS011;36483;37.396;-122.212;2022-07-03T13:44:45;2.08;;;0.93;;
50531;SDS011;36483;37.396;-122.212;2022-07-03T13:47:11;3.17;;;0.80;;
50531;SDS011;36483;37.396;-122.212;2022-07-03T13:49:37;2.00;;;1.00;;
50531;SDS011;36483;37.396;-122.212;2022-07-03T13:52:03;3.17;;;1.02;;
50531;SDS011;36483;37.396;-122.212;2022-07-03T13:54:29;1.98;;;0.90;;
50531;SDS011;36483;37.396;-122.212;2022-07-03T13:56:56;2.05;;;1.10;;
50531;SDS011;36483;37.396;-122.212;2022-07-03T13:59:22;2.70;;;1.10;;
50531;SDS011;36483;37.396;-122.212;2022-07-03T14:01:48;1.83;;;0.73;;
50531;SDS011;36483;37.396;-122.212;2022-07-03T14:04:14;1.55;;;1.10;;
50531;SDS011;36483;37.396;-122.212;2022-07-03T14:06:40;2.38;;;0.98;;
50531;SDS011;36483;37.396;-122.212;2022-07-03T14:09:06;2.53;;;1.02;;
50531;SDS011;36483;37.396;-122.212;2022-07-03T14:11:32;2.38;;;1.10;;
50531;SDS011;36483;37.396;-122.212;2022-07-03T14:13:59;1.60;;;1.00;;
50531;SDS011;36483;37.396;-122.212;2022-07-03T14:16:25;2.60;;;1.27;;
50531;SDS011;36483;37.396;-122.212;2022-07-03T14:18:51;1.90;;;1.13;;
50531;SDS011;36483;37.396;-122.212;2022-07-03T14:21:17;2.00;;;1.05;;
50531;SDS011;36483;37.396;-122.212;2022-07-03T14:23:43;2.42;;;1.15;;
50531;SDS011;36483;37.396;-122.212;2022-07-03T14:26:09;2.03;;;1.20;;
50531;SDS011;36483;37.396;-122.212;2022-07-03T14:28:35;2.13;;;1.25;;
50531;SDS011;36483;37.396;-122.212;2022-07-03T14:31:20;3.42;;;1.42;;
50531;SDS011;36483;37.396;-122.212;2022-07-03T14:33:49;4.50;;;1.35;;
50531;SDS011;36483;37.396;-122.212;2022-07-03T14:36:16;2.78;;;1.30;;
50531;SDS011;36483;37.396;-122.212;2022-07-03T14:38:43;2.97;;;1.45;;
50531;SDS011;36483;37.396;-122.212;2022-07-03T14:41:09;3.17;;;1.33;;
50531;SDS011;36483;37.396;-122.212;2022-07-03T14:43:35;2.83;;;1.58;;
50531;SDS011;36483;37.396;-122.212;2022-07-03T14:46:01;4.05;;;1.83;;
50531;SDS011;36483;37.396;-122.212;2022-07-03T14:48:27;2.58;;;1.77;;
50531;SDS011;36483;37.396;-122.212;2022-07-03T14:50:53;4.10;;;1.88;;
50531;SDS011;36483;37.396;-122.212;2022-07-03T14:53:20;3.40;;;1.70;;
50531;SDS011;36483;37.396;-122.212;2022-07-03T14:55:48;4.57;;;1.77;;
50531;SDS011;36483;37.396;-122.212;2022-07-03T14:58:15;3.15;;;1.65;;
50531;SDS011;36483;37.396;-122.212;2022-07-03T15:03:19;3.47;;;2.05;;
50531;SDS011;36483;37.396;-122.212;2022-07-03T15:05:54;4.72;;;1.58;;
50531;SDS011;36483;37.396;-122.212;2022-07-03T15:10:53;2.38;;;1.50;;
50531;SDS011;36483;37.396;-122.212;2022-07-03T15:13:20;2.95;;;1.45;;
50531;SDS011;36483;37.396;-122.212;2022-07-03T15:15:48;2.40;;;1.20;;
50531;SDS011;36483;37.396;-122.212;2022-07-03T15:18:19;4.43;;;1.30;;
50531;SDS011;36483;37.396;-122.212;2022-07-03T15:20:51;2.75;;;1.38;;
50531;SDS011;36483;37.396;-122.212;2022-07-03T15:23:18;2.28;;;1.40;;
50531;SDS011;36483;37.396;-122.212;2022-07-03T15:25:45;3.40;;;1.48;;
50531;SDS011;36483;37.396;-122.212;2022-07-03T15:28:12;3.60;;;1.50;;
50531;SDS011;36483;37.396;-122.212;2022-07-03T15:30:49;2.72;;;1.40;;
50531;SDS011;36483;37.396;-122.212;2022-07-03T15:33:16;2.80;;;1.30;;
50531;SDS011;36483;37.396;-122.212;2022-07-03T15:35:49;2.10;;;1.23;;